createdAt,value
2022-09-27T00:03:03.125Z,87.23
2022-09-27T00:06:08.106Z,87.20
2022-09-27T00:09:11.905Z,87.20
2022-09-27T00:12:15.161Z,87.30
2022-09-27T00:15:20.252Z,87.05
2022-09-27T00:18:22.913Z,87.15
2022-09-27T00:21:26.214Z,87.07
2022-09-27T00:24:28.911Z,86.98
2022-09-27T00:27:32.126Z,87.16
2022-09-27T00:30:42.354Z,87.08
2022-09-27T00:33:45.090Z,87.07
2022-09-27T00:36:48.703Z,87.45
2022-09-27T00:39:51.865Z,87.61
2022-09-27T00:42:54.897Z,87.96
2022-09-27T00:46:04.354Z,88.04
2022-09-27T00:49:14.988Z,88.05
2022-09-27T00:52:22.690Z,88.03
2022-09-27T00:55:30.595Z,88.00
2022-09-27T00:58:37.585Z,88.21
2022-09-27T01:01:42.103Z,88.21
2022-09-27T01:04:46.175Z,88.34
2022-09-27T01:07:48.896Z,88.65
2022-09-27T01:11:04.669Z,88.59
2022-09-27T01:14:39.343Z,88.63
2022-09-27T01:17:57.890Z,88.57
2022-09-27T01:21:44.791Z,88.51
2022-09-27T01:24:58.883Z,88.63
2022-09-27T01:28:16.747Z,88.66
2022-09-27T01:31:26.808Z,88.57
2022-09-27T01:34:39.346Z,88.80
2022-09-27T01:37:50.500Z,88.81
2022-09-27T01:40:57.902Z,89.17
2022-09-27T01:44:05.513Z,88.96
2022-09-27T01:47:16.131Z,89.30
2022-09-27T01:50:24.489Z,89.28
2022-09-27T01:53:33.079Z,89.32
2022-09-27T01:56:41.570Z,89.48
2022-09-27T01:59:48.213Z,89.73
2022-09-27T02:02:58.751Z,89.85
2022-09-27T02:06:04.752Z,90.02
2022-09-27T02:09:11.422Z,90.13
2022-09-27T02:12:17.778Z,90.07
2022-09-27T02:15:21.405Z,90.09
2022-09-27T02:18:34.302Z,89.98
2022-09-27T02:21:43.899Z,89.63
2022-09-27T02:24:52.261Z,89.55
2022-09-27T02:28:00.591Z,89.56
2022-09-27T02:31:03.918Z,89.35
2022-09-27T02:34:12.432Z,89.45
2022-09-27T02:37:15.891Z,89.38
2022-09-27T02:40:20.180Z,89.23
2022-09-27T02:43:29.402Z,88.97
2022-09-27T02:46:49.003Z,89.12
2022-09-27T02:50:06.897Z,89.13
2022-09-27T02:53:21.299Z,89.03
2022-09-27T02:56:27.690Z,88.90
2022-09-27T02:59:40.296Z,88.95
2022-09-27T03:02:54.278Z,88.75
2022-09-27T03:06:05.686Z,89.00
2022-09-27T03:09:15.720Z,89.05
2022-09-27T03:12:26.321Z,88.90
2022-09-27T03:15:29.083Z,89.11
2022-09-27T03:18:32.276Z,89.24
2022-09-27T03:21:36.339Z,89.10
2022-09-27T03:24:39.560Z,89.03
2022-09-27T03:27:42.378Z,89.20
2022-09-27T03:30:47.252Z,89.29
2022-09-27T03:33:49.978Z,89.46
2022-09-27T03:36:54.447Z,89.48
2022-09-27T03:39:57.143Z,89.22
2022-09-27T03:42:59.822Z,89.56
2022-09-27T03:46:02.627Z,89.41
2022-09-27T03:49:05.439Z,89.92
2022-09-27T03:52:09.968Z,89.64
2022-09-27T03:55:13.381Z,89.71
2022-09-27T03:58:16.657Z,90.03
2022-09-27T04:01:20.275Z,90.39
2022-09-27T04:04:23.130Z,90.76
2022-09-27T04:07:28.124Z,91.34
2022-09-27T04:10:31.301Z,91.24
2022-09-27T04:13:33.975Z,91.52
2022-09-27T04:16:37.180Z,91.46
2022-09-27T04:19:40.552Z,91.85
2022-09-27T04:22:45.567Z,90.88
2022-09-27T04:25:49.059Z,90.90
2022-09-27T04:29:43.186Z,90.23
2022-09-27T04:32:46.529Z,90.29
2022-09-27T04:36:07.239Z,90.97
2022-09-27T04:39:11.843Z,91.52
2022-09-27T04:42:14.611Z,92.69
2022-09-27T04:45:17.772Z,92.52
2022-09-27T04:48:21.194Z,92.88
2022-09-27T04:51:23.876Z,92.52
2022-09-27T04:54:29.356Z,92.90
2022-09-27T04:57:32.613Z,92.37
2022-09-27T05:00:35.297Z,92.60
2022-09-27T05:03:38.183Z,92.42
2022-09-27T05:06:40.842Z,92.29
2022-09-27T05:09:45.805Z,91.89
2022-09-27T05:12:48.543Z,91.57
2022-09-27T05:15:52.876Z,91.28
2022-09-27T05:18:56.980Z,91.19
2022-09-27T05:21:59.683Z,90.79
2022-09-27T05:25:03.689Z,90.84
2022-09-27T05:28:07.082Z,90.74
2022-09-27T05:31:10.794Z,90.41
2022-09-27T05:34:13.526Z,90.41
2022-09-27T05:37:16.657Z,90.48
2022-09-27T05:40:40.265Z,90.12
2022-09-27T05:43:43.932Z,90.27
2022-09-27T05:46:46.968Z,89.92
2022-09-27T05:49:50.021Z,89.62
2022-09-27T05:52:53.724Z,89.49
2022-09-27T05:55:57.731Z,89.35
2022-09-27T05:59:00.955Z,89.15
2022-09-27T06:02:03.733Z,88.58
2022-09-27T06:05:08.220Z,88.44
2022-09-27T06:08:13.305Z,88.47
2022-09-27T06:11:17.666Z,88.04
2022-09-27T06:14:20.985Z,88.27
2022-09-27T06:17:23.657Z,88.05
2022-09-27T06:20:27.286Z,87.69
2022-09-27T06:23:32.701Z,87.37
2022-09-27T06:26:37.685Z,87.35
2022-09-27T06:29:40.354Z,86.82
2022-09-27T06:32:43.578Z,86.23
2022-09-27T06:35:46.968Z,86.12
2022-09-27T06:38:49.781Z,85.81
2022-09-27T06:41:58.168Z,86.20
2022-09-27T06:45:01.391Z,85.78
2022-09-27T06:48:04.919Z,85.85
2022-09-27T06:51:08.010Z,85.61
2022-09-27T06:54:10.659Z,85.48
2022-09-27T06:57:35.445Z,85.27
2022-09-27T07:00:37.650Z,84.65
2022-09-27T07:03:41.733Z,84.12
2022-09-27T07:06:44.580Z,84.14
2022-09-27T07:09:47.300Z,84.43
2022-09-27T07:12:52.431Z,83.89
2022-09-27T07:15:55.070Z,83.71
2022-09-27T07:18:58.335Z,83.04
2022-09-27T07:22:01.003Z,82.55
2022-09-27T07:25:03.844Z,82.20
2022-09-27T07:28:09.749Z,81.47
2022-09-27T07:31:13.938Z,81.38
2022-09-27T07:34:19.001Z,81.28
2022-09-27T07:37:21.705Z,81.23
2022-09-27T07:40:24.909Z,80.80
2022-09-27T07:43:29.237Z,80.87
2022-09-27T07:46:31.969Z,81.26
2022-09-27T07:49:34.706Z,82.39
2022-09-27T07:52:41.051Z,82.33
2022-09-27T07:55:44.165Z,82.47
2022-09-27T07:58:48.180Z,82.66
2022-09-27T08:01:51.012Z,82.77
2022-09-27T08:04:53.801Z,83.13
2022-09-27T08:07:57.554Z,83.06
2022-09-27T08:11:00.755Z,82.83
2022-09-27T08:14:06.021Z,82.50
2022-09-27T08:17:11.416Z,82.72
2022-09-27T08:20:14.985Z,82.41
2022-09-27T08:23:17.784Z,82.30
2022-09-27T08:26:20.786Z,82.08
2022-09-27T08:29:24.800Z,82.45
2022-09-27T08:32:28.847Z,82.74
2022-09-27T08:35:34.173Z,83.04
2022-09-27T08:38:37.165Z,82.97
2022-09-27T08:41:46.073Z,82.83
2022-09-27T08:45:03.632Z,82.27
2022-09-27T08:48:07.708Z,82.60
2022-09-27T08:51:14.627Z,81.59
2022-09-27T08:54:22.066Z,81.39
2022-09-27T08:57:26.088Z,80.84
2022-09-27T09:00:31.005Z,80.06
2022-09-27T09:03:37.965Z,79.26
2022-09-27T09:06:44.439Z,78.24
2022-09-27T09:09:54.840Z,77.98
2022-09-27T09:13:08.768Z,76.32
2022-09-27T09:16:23.792Z,75.01
2022-09-27T09:19:45.823Z,75.18
2022-09-27T09:23:05.868Z,73.87
2022-09-27T09:26:17.155Z,72.70
2022-09-27T09:29:37.493Z,70.90
2022-09-27T09:32:56.179Z,69.64
2022-09-27T09:36:05.224Z,70.68
2022-09-27T09:39:15.421Z,70.85
2022-09-27T09:42:25.460Z,69.28
2022-09-27T09:45:32.077Z,70.59
2022-09-27T09:48:42.193Z,70.98
2022-09-27T09:51:50.307Z,71.01
2022-09-27T09:54:58.779Z,70.12
2022-09-27T09:58:08.172Z,69.58
2022-09-27T10:01:18.538Z,68.44
2022-09-27T10:04:25.418Z,69.38
2022-09-27T10:07:30.038Z,68.95
2022-09-27T10:10:33.187Z,69.51
2022-09-27T10:13:37.238Z,69.68
2022-09-27T10:16:43.812Z,69.92
2022-09-27T10:19:49.909Z,70.28
2022-09-27T10:22:57.024Z,70.93
2022-09-27T10:26:02.067Z,70.40
2022-09-27T10:29:23.385Z,70.77
2022-09-27T10:32:31.375Z,70.97
2022-09-27T10:35:39.130Z,70.00
2022-09-27T10:38:53.949Z,70.73
2022-09-27T10:41:57.009Z,69.37
2022-09-27T10:44:59.858Z,69.84
2022-09-27T10:48:03.816Z,70.59
2022-09-27T10:51:20.676Z,68.12
2022-09-27T10:54:28.012Z,66.72
2022-09-27T10:57:32.026Z,66.87
2022-09-27T11:00:37.538Z,66.82
2022-09-27T11:03:48.996Z,66.44
2022-09-27T11:06:53.418Z,66.78
2022-09-27T11:10:03.410Z,67.49
2022-09-27T11:13:12.851Z,67.59
2022-09-27T11:16:31.225Z,68.61
2022-09-27T11:20:00.531Z,68.67
2022-09-27T11:23:21.797Z,69.80
2022-09-27T11:26:38.473Z,70.10
2022-09-27T11:29:51.822Z,69.47
2022-09-27T11:33:20.853Z,69.59
2022-09-27T11:36:36.784Z,69.60
2022-09-27T11:39:55.305Z,69.58
2022-09-27T11:43:19.327Z,69.13
2022-09-27T11:46:36.614Z,68.23
2022-09-27T11:50:13.530Z,67.26
2022-09-27T11:53:25.692Z,67.42
2022-09-27T11:56:40.656Z,67.28
2022-09-27T12:00:06.844Z,67.02
2022-09-27T12:03:52.371Z,67.00
2022-09-27T12:07:02.548Z,67.15
2022-09-27T12:10:13.872Z,66.82
2022-09-27T12:13:25.108Z,66.98
2022-09-27T12:16:28.988Z,67.34
2022-09-27T12:19:36.943Z,65.54
2022-09-27T12:22:58.615Z,65.11
2022-09-27T12:26:07.305Z,65.56
2022-09-27T12:29:16.349Z,64.83
2022-09-27T12:32:25.148Z,64.93
2022-09-27T12:35:30.637Z,64.58
2022-09-27T12:38:41.348Z,64.19
2022-09-27T12:41:51.394Z,63.73
2022-09-27T12:44:55.960Z,63.53
2022-09-27T12:48:09.397Z,62.74
2022-09-27T12:51:15.083Z,63.06
2022-09-27T12:54:38.989Z,61.81
2022-09-27T12:57:51.314Z,62.46
2022-09-27T13:01:00.970Z,62.08
2022-09-27T13:04:25.345Z,62.08
2022-09-27T13:07:44.030Z,61.41
2022-09-27T13:10:58.640Z,60.45
2022-09-27T13:14:04.355Z,61.09
2022-09-27T13:17:33.789Z,61.29
2022-09-27T13:20:48.950Z,61.29
2022-09-27T13:23:52.489Z,61.21
2022-09-27T13:26:55.854Z,60.74
2022-09-27T13:30:49.598Z,60.10
2022-09-27T13:33:54.978Z,60.51
2022-09-27T13:36:57.757Z,60.73
2022-09-27T13:40:15.231Z,61.42
2022-09-27T13:43:48.898Z,61.26
2022-09-27T13:46:56.444Z,61.74
2022-09-27T13:50:15.862Z,61.71
2022-09-27T13:53:26.309Z,61.62
2022-09-27T13:56:52.820Z,61.93
2022-09-27T14:00:00.662Z,61.99
2022-09-27T14:03:07.847Z,62.36
2022-09-27T14:06:16.477Z,62.35
2022-09-27T14:09:22.441Z,62.04
2022-09-27T14:12:29.781Z,62.78
2022-09-27T14:15:55.205Z,63.06
2022-09-27T14:18:59.581Z,63.50
2022-09-27T14:22:03.657Z,63.20
2022-09-27T14:25:18.821Z,63.74
2022-09-27T14:28:24.090Z,64.32
2022-09-27T14:31:27.727Z,65.39
2022-09-27T14:34:30.673Z,66.26
2022-09-27T14:37:36.321Z,67.15
2022-09-27T14:40:44.689Z,68.12
2022-09-27T14:43:50.734Z,69.21
2022-09-27T14:47:10.214Z,69.28
2022-09-27T14:50:20.033Z,70.16
2022-09-27T14:53:26.429Z,69.98
2022-09-27T14:56:32.457Z,69.75
2022-09-27T14:59:37.853Z,69.38
2022-09-27T15:02:42.621Z,68.88
2022-09-27T15:05:46.018Z,68.74
2022-09-27T15:08:50.442Z,68.99
2022-09-27T15:11:56.786Z,69.06
2022-09-27T15:15:00.183Z,68.84
2022-09-27T15:18:04.840Z,69.14
2022-09-27T15:21:09.071Z,69.05
2022-09-27T15:24:41.322Z,69.07
2022-09-27T15:27:49.619Z,68.10
2022-09-27T15:30:56.154Z,68.84
2022-09-27T15:33:59.518Z,69.06
2022-09-27T15:37:03.782Z,68.99
2022-09-27T15:41:05.960Z,68.60
2022-09-27T15:44:36.752Z,68.69
2022-09-27T15:47:51.265Z,67.86
2022-09-27T15:50:54.430Z,67.98
2022-09-27T15:53:57.141Z,67.80
2022-09-27T15:57:05.394Z,67.68
2022-09-27T16:00:13.546Z,67.66
2022-09-27T16:03:16.993Z,68.08
2022-09-27T16:06:20.227Z,68.16
2022-09-27T16:09:23.909Z,67.97
2022-09-27T16:12:30.287Z,68.43
2022-09-27T16:15:33.301Z,68.42
2022-09-27T16:18:36.167Z,68.77
2022-09-27T16:21:39.131Z,68.94
2022-09-27T16:24:41.843Z,69.45
2022-09-27T16:27:46.644Z,69.88
2022-09-27T16:30:49.619Z,69.81
2022-09-27T16:33:52.559Z,70.26
2022-09-27T16:36:55.263Z,70.65
2022-09-27T16:39:58.272Z,71.04
2022-09-27T16:43:05.131Z,71.08
2022-09-27T16:46:13.181Z,71.21
2022-09-27T16:49:29.887Z,71.88
2022-09-27T16:52:34.268Z,72.22
2022-09-27T16:55:37.456Z,72.59
2022-09-27T16:58:41.649Z,73.20
2022-09-27T17:01:44.839Z,73.61
2022-09-27T17:04:47.955Z,74.73
2022-09-27T17:07:51.986Z,75.18
2022-09-27T17:10:57.163Z,75.47
2022-09-27T17:14:02.220Z,76.09
2022-09-27T17:17:04.938Z,76.40
2022-09-27T17:20:09.439Z,77.11
2022-09-27T17:23:12.763Z,77.39
2022-09-27T17:26:17.923Z,77.40
2022-09-27T17:29:22.320Z,78.48
2022-09-27T17:32:25.154Z,79.03
2022-09-27T17:35:27.861Z,79.64
2022-09-27T17:38:30.662Z,80.20
2022-09-27T17:41:39.579Z,80.39
2022-09-27T17:44:44.279Z,80.39
2022-09-27T17:48:04.512Z,80.78
2022-09-27T17:51:07.557Z,80.79
2022-09-27T17:54:11.838Z,81.23
2022-09-27T17:57:14.899Z,81.04
2022-09-27T18:00:20.366Z,81.40
2022-09-27T18:03:23.314Z,81.72
2022-09-27T18:06:27.206Z,81.66
2022-09-27T18:09:29.923Z,81.70
2022-09-27T18:12:33.004Z,81.72
2022-09-27T18:15:37.882Z,81.30
2022-09-27T18:18:42.226Z,81.47
2022-09-27T18:21:45.576Z,81.73
2022-09-27T18:24:48.284Z,82.01
2022-09-27T18:27:52.235Z,82.30
2022-09-27T18:30:56.839Z,82.33
2022-09-27T18:33:59.846Z,82.16
2022-09-27T18:37:02.616Z,82.78
2022-09-27T18:40:05.997Z,82.95
2022-09-27T18:43:08.766Z,82.64
2022-09-27T18:46:34.388Z,82.39
2022-09-27T18:49:38.124Z,82.93
2022-09-27T18:52:41.677Z,83.53
2022-09-27T18:55:44.401Z,84.42
2022-09-27T18:58:47.077Z,84.19
2022-09-27T19:01:51.681Z,84.77
2022-09-27T19:04:54.407Z,84.78
2022-09-27T19:07:57.203Z,84.59
2022-09-27T19:11:06.183Z,84.33
2022-09-27T19:14:08.915Z,84.23
2022-09-27T19:17:12.959Z,84.02
2022-09-27T19:20:15.630Z,83.62
2022-09-27T19:23:18.527Z,83.40
2022-09-27T19:26:23.640Z,83.10
2022-09-27T19:29:26.678Z,82.60
2022-09-27T19:32:31.066Z,82.38
2022-09-27T19:35:33.761Z,82.16
2022-09-27T19:38:38.422Z,82.35
2022-09-27T19:41:41.124Z,82.02
2022-09-27T19:44:43.998Z,81.79
2022-09-27T19:47:48.298Z,81.68
2022-09-27T19:50:58.062Z,81.63
2022-09-27T19:54:00.782Z,81.81
2022-09-27T19:57:03.646Z,82.05
2022-09-27T20:00:08.254Z,81.82
2022-09-27T20:03:13.217Z,82.11
2022-09-27T20:06:19.129Z,82.54
2022-09-27T20:09:22.673Z,82.73
2022-09-27T20:12:25.417Z,83.03
2022-09-27T20:15:28.092Z,83.11
2022-09-27T20:18:32.307Z,83.31
2022-09-27T20:21:35.019Z,83.56
2022-09-27T20:24:37.839Z,83.84
2022-09-27T20:27:40.756Z,84.07
2022-09-27T20:30:43.770Z,84.42
2022-09-27T20:33:50.705Z,84.62
2022-09-27T20:36:53.597Z,85.11
2022-09-27T20:39:56.339Z,85.84
2022-09-27T20:42:59.120Z,86.28
2022-09-27T20:46:02.867Z,86.34
2022-09-27T20:49:09.034Z,86.65
2022-09-27T20:52:11.768Z,86.58
2022-09-27T20:55:14.621Z,86.86
2022-09-27T20:58:17.563Z,86.52
2022-09-27T21:01:21.859Z,86.28
2022-09-27T21:04:26.043Z,86.90
2022-09-27T21:07:28.718Z,86.49
2022-09-27T21:10:31.444Z,86.63
2022-09-27T21:13:34.451Z,86.73
2022-09-27T21:16:37.192Z,86.65
2022-09-27T21:19:41.710Z,86.57
2022-09-27T21:22:44.755Z,86.87
2022-09-27T21:25:49.234Z,87.10
2022-09-27T21:28:53.511Z,87.04
2022-09-27T21:31:56.279Z,87.40
2022-09-27T21:35:01.446Z,87.42
2022-09-27T21:38:04.422Z,88.00
2022-09-27T21:41:09.014Z,88.02
2022-09-27T21:44:12.725Z,87.96
2022-09-27T21:47:15.491Z,88.10
2022-09-27T21:50:19.582Z,87.97
2022-09-27T21:53:22.282Z,88.40
2022-09-27T21:56:27.893Z,88.29
2022-09-27T21:59:30.588Z,88.57
2022-09-27T22:02:33.556Z,88.71
2022-09-27T22:05:44.738Z,88.21
2022-09-27T22:08:48.484Z,88.16
2022-09-27T22:11:51.859Z,88.10
2022-09-27T22:14:54.569Z,87.59
2022-09-27T22:17:57.574Z,87.42
2022-09-27T22:21:06.991Z,87.46
2022-09-27T22:24:13.425Z,87.09
2022-09-27T22:27:16.365Z,87.14
2022-09-27T22:30:19.142Z,86.81
2022-09-27T22:33:21.835Z,86.95
2022-09-27T22:36:28.351Z,86.89
2022-09-27T22:39:31.365Z,86.84
2022-09-27T22:42:34.057Z,86.86
2022-09-27T22:45:36.917Z,87.03
2022-09-27T22:48:40.063Z,86.72
2022-09-27T22:51:44.125Z,86.61
2022-09-27T22:54:47.108Z,86.49
2022-09-27T22:57:49.799Z,86.49
2022-09-27T23:00:52.574Z,86.44
2022-09-27T23:03:56.019Z,86.41
2022-09-27T23:07:00.467Z,86.54
2022-09-27T23:10:03.171Z,86.18
2022-09-27T23:13:06.259Z,86.03
2022-09-27T23:16:11.251Z,85.99
2022-09-27T23:19:16.454Z,85.83
2022-09-27T23:22:20.838Z,85.90
2022-09-27T23:25:23.588Z,85.73
2022-09-27T23:28:26.664Z,85.65
2022-09-27T23:31:31.209Z,85.58
2022-09-27T23:34:34.328Z,85.84
2022-09-27T23:37:38.552Z,85.76
2022-09-27T23:40:42.200Z,85.68
2022-09-27T23:43:45.499Z,85.52
2022-09-27T23:46:48.422Z,85.63
2022-09-27T23:49:51.250Z,85.70
2022-09-27T23:52:55.304Z,85.25
2022-09-27T23:56:02.882Z,85.39
2022-09-27T23:59:05.991Z,85.32
